sensor_id;sensor_type;location;lat;lon;timestamp;P1;durP1;ratioP1;P2;durP2;ratioP2
1925;SDS011;964;42.606;23.588;2024-02-15T00:02:21;16.20;;;8.27;;
1925;SDS011;964;42.606;23.588;2024-02-15T00:04:48;10.83;;;7.97;;
1925;SDS011;964;42.606;23.588;2024-02-15T00:07:15;12.10;;;8.90;;
1925;SDS011;964;42.606;23.588;2024-02-15T00:09:43;13.30;;;8.93;;
1925;SDS011;964;42.606;23.588;2024-02-15T00:12:10;13.80;;;7.80;;
1925;SDS011;964;42.606;23.588;2024-02-15T00:14:38;12.60;;;8.33;;
1925;SDS011;964;42.606;23.588;2024-02-15T00:17:04;16.50;;;9.60;;
1925;SDS011;964;42.606;23.588;2024-02-15T00:19:31;11.10;;;8.10;;
1925;SDS011;964;42.606;23.588;2024-02-15T00:21:58;13.77;;;8.57;;
1925;SDS011;964;42.606;23.588;2024-02-15T00:24:25;11.27;;;7.53;;
1925;SDS011;964;42.606;23.588;2024-02-15T00:26:53;11.70;;;8.30;;
1925;SDS011;964;42.606;23.588;2024-02-15T00:29:21;10.97;;;8.07;;
1925;SDS011;964;42.606;23.588;2024-02-15T00:31:47;12.67;;;7.63;;
1925;SDS011;964;42.606;23.588;2024-02-15T00:34:15;9.10;;;7.07;;
1925;SDS011;964;42.606;23.588;2024-02-15T00:36:42;16.90;;;8.03;;
1925;SDS011;964;42.606;23.588;2024-02-15T00:39:10;10.80;;;7.87;;
1925;SDS011;964;42.606;23.588;2024-02-15T00:41:38;12.87;;;8.30;;
1925;SDS011;964;42.606;23.588;2024-02-15T00:44:08;13.73;;;8.43;;
1925;SDS011;964;42.606;23.588;2024-02-15T00:46:36;11.97;;;7.27;;
1925;SDS011;964;42.606;23.588;2024-02-15T00:49:03;12.90;;;8.60;;
1925;SDS011;964;42.606;23.588;2024-02-15T00:51:31;10.60;;;8.20;;
1925;SDS011;964;42.606;23.588;2024-02-15T00:53:58;11.77;;;8.20;;
1925;SDS011;964;42.606;23.588;2024-02-15T00:56:26;9.93;;;7.90;;
1925;SDS011;964;42.606;23.588;2024-02-15T00:58:52;6.33;;;4.90;;
1925;SDS011;964;42.606;23.588;2024-02-15T01:01:21;10.17;;;7.57;;
1925;SDS011;964;42.606;23.588;2024-02-15T01:03:48;10.53;;;6.77;;
1925;SDS011;964;42.606;23.588;2024-02-15T01:06:13;13.30;;;7.97;;
1925;SDS011;964;42.606;23.588;2024-02-15T01:08:40;11.27;;;7.00;;
1925;SDS011;964;42.606;23.588;2024-02-15T01:11:07;8.47;;;6.53;;
1925;SDS011;964;42.606;23.588;2024-02-15T01:13:34;8.37;;;6.90;;
1925;SDS011;964;42.606;23.588;2024-02-15T01:16:02;11.87;;;7.13;;
1925;SDS011;964;42.606;23.588;2024-02-15T01:18:31;11.00;;;7.10;;
1925;SDS011;964;42.606;23.588;2024-02-15T01:20:58;9.30;;;6.40;;
1925;SDS011;964;42.606;23.588;2024-02-15T01:23:24;15.93;;;7.93;;
1925;SDS011;964;42.606;23.588;2024-02-15T01:25:52;11.50;;;7.63;;
1925;SDS011;964;42.606;23.588;2024-02-15T01:28:18;11.63;;;7.23;;
1925;SDS011;964;42.606;23.588;2024-02-15T01:30:45;9.30;;;7.23;;
1925;SDS011;964;42.606;23.588;2024-02-15T01:33:12;13.93;;;7.53;;
1925;SDS011;964;42.606;23.588;2024-02-15T01:35:40;9.63;;;6.90;;
1925;SDS011;964;42.606;23.588;2024-02-15T01:38:07;10.10;;;8.13;;
1925;SDS011;964;42.606;23.588;2024-02-15T01:40:34;11.43;;;7.67;;
1925;SDS011;964;42.606;23.588;2024-02-15T01:43:01;10.57;;;8.17;;
1925;SDS011;964;42.606;23.588;2024-02-15T01:45:28;7.90;;;5.77;;
1925;SDS011;964;42.606;23.588;2024-02-15T01:47:54;9.33;;;6.13;;
1925;SDS011;964;42.606;23.588;2024-02-15T01:50:21;9.73;;;5.80;;
1925;SDS011;964;42.606;23.588;2024-02-15T01:52:51;9.00;;;7.40;;
1925;SDS011;964;42.606;23.588;2024-02-15T01:55:22;11.73;;;7.83;;
1925;SDS011;964;42.606;23.588;2024-02-15T01:57:49;7.87;;;6.00;;
1925;SDS011;964;42.606;23.588;2024-02-15T02:00:17;8.97;;;5.77;;
1925;SDS011;964;42.606;23.588;2024-02-15T02:02:44;7.40;;;5.10;;
1925;SDS011;964;42.606;23.588;2024-02-15T02:05:12;6.70;;;5.43;;
1925;SDS011;964;42.606;23.588;2024-02-15T02:07:39;11.23;;;6.73;;
1925;SDS011;964;42.606;23.588;2024-02-15T02:10:07;10.70;;;6.70;;
1925;SDS011;964;42.606;23.588;2024-02-15T02:12:36;8.33;;;7.03;;
1925;SDS011;964;42.606;23.588;2024-02-15T02:15:05;10.10;;;6.70;;
1925;SDS011;964;42.606;23.588;2024-02-15T02:17:33;9.73;;;6.23;;
1925;SDS011;964;42.606;23.588;2024-02-15T02:20:00;13.67;;;8.03;;
1925;SDS011;964;42.606;23.588;2024-02-15T02:22:33;8.60;;;5.77;;
1925;SDS011;964;42.606;23.588;2024-02-15T02:25:03;12.33;;;6.50;;
1925;SDS011;964;42.606;23.588;2024-02-15T02:27:33;11.57;;;7.10;;
1925;SDS011;964;42.606;23.588;2024-02-15T02:30:02;12.57;;;7.80;;
1925;SDS011;964;42.606;23.588;2024-02-15T02:32:32;11.03;;;8.10;;
1925;SDS011;964;42.606;23.588;2024-02-15T02:34:59;12.90;;;9.40;;
1925;SDS011;964;42.606;23.588;2024-02-15T02:37:26;11.27;;;8.13;;
1925;SDS011;964;42.606;23.588;2024-02-15T02:39:53;10.10;;;7.40;;
1925;SDS011;964;42.606;23.588;2024-02-15T02:42:21;11.13;;;6.93;;
1925;SDS011;964;42.606;23.588;2024-02-15T02:44:48;7.17;;;4.97;;
1925;SDS011;964;42.606;23.588;2024-02-15T02:47:15;10.40;;;7.20;;
1925;SDS011;964;42.606;23.588;2024-02-15T02:49:42;9.90;;;6.67;;
1925;SDS011;964;42.606;23.588;2024-02-15T02:52:09;13.63;;;5.97;;
1925;SDS011;964;42.606;23.588;2024-02-15T02:54:36;13.70;;;7.63;;
1925;SDS011;964;42.606;23.588;2024-02-15T02:57:03;10.13;;;7.20;;
1925;SDS011;964;42.606;23.588;2024-02-15T02:59:33;11.80;;;8.10;;
1925;SDS011;964;42.606;23.588;2024-02-15T03:02:00;14.80;;;8.40;;
1925;SDS011;964;42.606;23.588;2024-02-15T03:04:28;12.97;;;8.57;;
1925;SDS011;964;42.606;23.588;2024-02-15T03:06:55;11.53;;;7.43;;
1925;SDS011;964;42.606;23.588;2024-02-15T03:09:23;13.93;;;7.93;;
1925;SDS011;964;42.606;23.588;2024-02-15T03:11:52;7.20;;;4.80;;
1925;SDS011;964;42.606;23.588;2024-02-15T03:14:18;9.90;;;6.00;;
1925;SDS011;964;42.606;23.588;2024-02-15T03:16:47;11.13;;;6.53;;
1925;SDS011;964;42.606;23.588;2024-02-15T03:19:14;11.70;;;7.67;;
1925;SDS011;964;42.606;23.588;2024-02-15T03:21:40;10.67;;;7.30;;
1925;SDS011;964;42.606;23.588;2024-02-15T03:24:11;17.67;;;7.63;;
1925;SDS011;964;42.606;23.588;2024-02-15T03:26:37;9.87;;;7.17;;
1925;SDS011;964;42.606;23.588;2024-02-15T03:29:05;14.17;;;9.03;;
1925;SDS011;964;42.606;23.588;2024-02-15T03:31:33;9.90;;;6.30;;
1925;SDS011;964;42.606;23.588;2024-02-15T03:34:02;10.10;;;6.23;;
1925;SDS011;964;42.606;23.588;2024-02-15T03:36:29;9.17;;;6.70;;
1925;SDS011;964;42.606;23.588;2024-02-15T03:38:55;13.10;;;6.27;;
1925;SDS011;964;42.606;23.588;2024-02-15T03:41:22;13.30;;;8.30;;
1925;SDS011;964;42.606;23.588;2024-02-15T03:43:49;10.53;;;6.33;;
1925;SDS011;964;42.606;23.588;2024-02-15T03:46:16;14.10;;;8.23;;
1925;SDS011;964;42.606;23.588;2024-02-15T03:48:43;11.97;;;6.90;;
1925;SDS011;964;42.606;23.588;2024-02-15T03:51:15;13.80;;;7.77;;
1925;SDS011;964;42.606;23.588;2024-02-15T03:53:42;10.97;;;7.97;;
1925;SDS011;964;42.606;23.588;2024-02-15T03:56:09;12.03;;;8.33;;
1925;SDS011;964;42.606;23.588;2024-02-15T03:58:37;12.97;;;8.67;;
1925;SDS011;964;42.606;23.588;2024-02-15T04:01:04;10.73;;;8.27;;
1925;SDS011;964;42.606;23.588;2024-02-15T04:03:35;11.73;;;8.27;;
1925;SDS011;964;42.606;23.588;2024-02-15T04:06:02;12.33;;;7.60;;
1925;SDS011;964;42.606;23.588;2024-02-15T04:08:30;13.47;;;8.97;;
1925;SDS011;964;42.606;23.588;2024-02-15T04:10:57;15.77;;;9.07;;
1925;SDS011;964;42.606;23.588;2024-02-15T04:13:24;12.73;;;7.67;;
1925;SDS011;964;42.606;23.588;2024-02-15T04:15:51;16.70;;;9.60;;
1925;SDS011;964;42.606;23.588;2024-02-15T04:18:18;12.77;;;8.33;;
1925;SDS011;964;42.606;23.588;2024-02-15T04:20:45;14.00;;;7.40;;
1925;SDS011;964;42.606;23.588;2024-02-15T04:23:13;13.30;;;8.50;;
1925;SDS011;964;42.606;23.588;2024-02-15T04:25:41;13.90;;;7.50;;
1925;SDS011;964;42.606;23.588;2024-02-15T04:28:09;11.40;;;8.23;;
1925;SDS011;964;42.606;23.588;2024-02-15T04:30:36;12.40;;;7.80;;
1925;SDS011;964;42.606;23.588;2024-02-15T04:33:05;8.43;;;6.63;;
1925;SDS011;964;42.606;23.588;2024-02-15T04:35:33;17.50;;;9.17;;
1925;SDS011;964;42.606;23.588;2024-02-15T04:38:00;12.10;;;7.87;;
1925;SDS011;964;42.606;23.588;2024-02-15T04:40:28;12.60;;;7.87;;
1925;SDS011;964;42.606;23.588;2024-02-15T04:42:57;13.00;;;6.40;;
1925;SDS011;964;42.606;23.588;2024-02-15T04:45:24;12.57;;;8.63;;
1925;SDS011;964;42.606;23.588;2024-02-15T04:47:51;13.20;;;7.87;;
1925;SDS011;964;42.606;23.588;2024-02-15T04:50:18;12.47;;;7.53;;
1925;SDS011;964;42.606;23.588;2024-02-15T04:52:46;11.37;;;6.57;;
1925;SDS011;964;42.606;23.588;2024-02-15T04:55:15;9.90;;;6.70;;
1925;SDS011;964;42.606;23.588;2024-02-15T04:57:43;12.93;;;7.93;;
1925;SDS011;964;42.606;23.588;2024-02-15T05:00:13;11.83;;;7.93;;
1925;SDS011;964;42.606;23.588;2024-02-15T05:02:40;12.83;;;6.23;;
1925;SDS011;964;42.606;23.588;2024-02-15T05:05:09;9.00;;;6.63;;
1925;SDS011;964;42.606;23.588;2024-02-15T05:07:37;10.97;;;6.73;;
1925;SDS011;964;42.606;23.588;2024-02-15T05:10:05;12.83;;;6.87;;
1925;SDS011;964;42.606;23.588;2024-02-15T05:12:34;15.57;;;8.40;;
1925;SDS011;964;42.606;23.588;2024-02-15T05:15:00;13.00;;;7.80;;
1925;SDS011;964;42.606;23.588;2024-02-15T05:17:36;16.97;;;7.27;;
1925;SDS011;964;42.606;23.588;2024-02-15T05:20:06;12.00;;;8.50;;
1925;SDS011;964;42.606;23.588;2024-02-15T05:22:38;16.60;;;8.40;;
1925;SDS011;964;42.606;23.588;2024-02-15T05:25:05;15.03;;;8.77;;
1925;SDS011;964;42.606;23.588;2024-02-15T05:27:33;13.73;;;7.63;;
1925;SDS011;964;42.606;23.588;2024-02-15T05:30:02;13.10;;;8.20;;
1925;SDS011;964;42.606;23.588;2024-02-15T05:32:32;13.00;;;7.80;;
1925;SDS011;964;42.606;23.588;2024-02-15T05:35:09;13.87;;;8.10;;
1925;SDS011;964;42.606;23.588;2024-02-15T05:37:36;14.60;;;8.40;;
1925;SDS011;964;42.606;23.588;2024-02-15T05:40:04;14.03;;;7.77;;
1925;SDS011;964;42.606;23.588;2024-02-15T05:42:32;17.27;;;8.10;;
1925;SDS011;964;42.606;23.588;2024-02-15T05:45:26;13.67;;;8.77;;
1925;SDS011;964;42.606;23.588;2024-02-15T05:48:04;12.50;;;7.77;;
1925;SDS011;964;42.606;23.588;2024-02-15T05:50:38;12.13;;;7.20;;
1925;SDS011;964;42.606;23.588;2024-02-15T05:53:05;20.47;;;9.20;;
1925;SDS011;964;42.606;23.588;2024-02-15T05:55:33;13.43;;;9.33;;
1925;SDS011;964;42.606;23.588;2024-02-15T05:58:02;12.67;;;6.97;;
1925;SDS011;964;42.606;23.588;2024-02-15T06:00:29;13.30;;;8.30;;
1925;SDS011;964;42.606;23.588;2024-02-15T06:02:56;13.57;;;6.90;;
1925;SDS011;964;42.606;23.588;2024-02-15T06:05:22;14.50;;;8.40;;
1925;SDS011;964;42.606;23.588;2024-02-15T06:07:51;14.30;;;7.60;;
1925;SDS011;964;42.606;23.588;2024-02-15T06:10:17;18.83;;;7.00;;
1925;SDS011;964;42.606;23.588;2024-02-15T06:12:44;10.63;;;6.50;;
1925;SDS011;964;42.606;23.588;2024-02-15T06:15:11;8.27;;;6.30;;
1925;SDS011;964;42.606;23.588;2024-02-15T06:17:41;14.40;;;8.17;;
1925;SDS011;964;42.606;23.588;2024-02-15T06:20:11;11.07;;;6.53;;
1925;SDS011;964;42.606;23.588;2024-02-15T06:22:40;10.17;;;7.70;;
1925;SDS011;964;42.606;23.588;2024-02-15T06:25:09;10.87;;;6.50;;
1925;SDS011;964;42.606;23.588;2024-02-15T06:27:36;13.13;;;7.77;;
1925;SDS011;964;42.606;23.588;2024-02-15T06:30:07;13.37;;;7.83;;
1925;SDS011;964;42.606;23.588;2024-02-15T06:32:52;13.80;;;8.00;;
1925;SDS011;964;42.606;23.588;2024-02-15T06:35:36;15.70;;;7.73;;
1925;SDS011;964;42.606;23.588;2024-02-15T06:38:21;10.80;;;7.37;;
1925;SDS011;964;42.606;23.588;2024-02-15T06:41:06;15.60;;;8.80;;
1925;SDS011;964;42.606;23.588;2024-02-15T06:43:33;11.17;;;7.10;;
1925;SDS011;964;42.606;23.588;2024-02-15T06:46:00;12.27;;;7.07;;
1925;SDS011;964;42.606;23.588;2024-02-15T06:48:28;13.70;;;7.30;;
1925;SDS011;964;42.606;23.588;2024-02-15T06:50:56;14.50;;;7.47;;
1925;SDS011;964;42.606;23.588;2024-02-15T06:53:23;10.83;;;7.63;;
1925;SDS011;964;42.606;23.588;2024-02-15T06:55:50;13.37;;;7.43;;
1925;SDS011;964;42.606;23.588;2024-02-15T06:58:18;11.27;;;7.20;;
1925;SDS011;964;42.606;23.588;2024-02-15T07:00:45;16.60;;;7.80;;
1925;SDS011;964;42.606;23.588;2024-02-15T07:03:15;14.23;;;9.50;;
1925;SDS011;964;42.606;23.588;2024-02-15T07:05:43;16.87;;;8.30;;
1925;SDS011;964;42.606;23.588;2024-02-15T07:08:10;11.83;;;7.00;;
1925;SDS011;964;42.606;23.588;2024-02-15T07:10:37;13.00;;;6.00;;
1925;SDS011;964;42.606;23.588;2024-02-15T07:13:04;11.53;;;5.80;;
1925;SDS011;964;42.606;23.588;2024-02-15T07:15:33;17.13;;;8.30;;
1925;SDS011;964;42.606;23.588;2024-02-15T07:18:03;10.73;;;6.80;;
1925;SDS011;964;42.606;23.588;2024-02-15T07:20:31;12.60;;;7.63;;
1925;SDS011;964;42.606;23.588;2024-02-15T07:22:58;10.53;;;6.70;;
1925;SDS011;964;42.606;23.588;2024-02-15T07:25:25;11.20;;;6.60;;
1925;SDS011;964;42.606;23.588;2024-02-15T07:27:52;10.90;;;7.27;;
1925;SDS011;964;42.606;23.588;2024-02-15T07:30:19;9.03;;;5.73;;
1925;SDS011;964;42.606;23.588;2024-02-15T07:32:47;11.73;;;7.43;;
1925;SDS011;964;42.606;23.588;2024-02-15T07:35:14;8.90;;;5.17;;
1925;SDS011;964;42.606;23.588;2024-02-15T07:37:50;18.07;;;7.13;;
1925;SDS011;964;42.606;23.588;2024-02-15T07:40:18;19.83;;;8.80;;
1925;SDS011;964;42.606;23.588;2024-02-15T07:42:47;14.50;;;7.67;;
1925;SDS011;964;42.606;23.588;2024-02-15T07:45:14;10.30;;;8.40;;
1925;SDS011;964;42.606;23.588;2024-02-15T07:47:41;13.23;;;7.53;;
1925;SDS011;964;42.606;23.588;2024-02-15T07:50:09;11.83;;;8.50;;
1925;SDS011;964;42.606;23.588;2024-02-15T07:52:38;9.77;;;6.63;;
1925;SDS011;964;42.606;23.588;2024-02-15T07:55:04;11.43;;;8.07;;
1925;SDS011;964;42.606;23.588;2024-02-15T07:57:34;15.90;;;8.90;;
1925;SDS011;964;42.606;23.588;2024-02-15T08:00:01;9.00;;;7.20;;
1925;SDS011;964;42.606;23.588;2024-02-15T08:02:28;14.93;;;8.63;;
1925;SDS011;964;42.606;23.588;2024-02-15T08:04:54;11.70;;;8.30;;
1925;SDS011;964;42.606;23.588;2024-02-15T08:07:22;15.13;;;8.90;;
1925;SDS011;964;42.606;23.588;2024-02-15T08:09:50;9.20;;;7.73;;
1925;SDS011;964;42.606;23.588;2024-02-15T08:12:18;10.43;;;7.50;;
1925;SDS011;964;42.606;23.588;2024-02-15T08:14:45;11.03;;;7.77;;
1925;SDS011;964;42.606;23.588;2024-02-15T08:17:12;11.93;;;8.40;;
1925;SDS011;964;42.606;23.588;2024-02-15T08:19:39;11.10;;;7.50;;
1925;SDS011;964;42.606;23.588;2024-02-15T08:22:06;13.00;;;9.17;;
1925;SDS011;964;42.606;23.588;2024-02-15T08:24:36;13.07;;;8.47;;
1925;SDS011;964;42.606;23.588;2024-02-15T08:27:03;8.63;;;7.53;;
1925;SDS011;964;42.606;23.588;2024-02-15T08:29:30;10.27;;;7.50;;
1925;SDS011;964;42.606;23.588;2024-02-15T08:31:57;12.17;;;8.10;;
1925;SDS011;964;42.606;23.588;2024-02-15T08:34:24;11.27;;;8.03;;
1925;SDS011;964;42.606;23.588;2024-02-15T08:36:51;11.93;;;8.20;;
1925;SDS011;964;42.606;23.588;2024-02-15T08:39:18;11.17;;;8.80;;
1925;SDS011;964;42.606;23.588;2024-02-15T08:41:49;11.97;;;8.00;;
1925;SDS011;964;42.606;23.588;2024-02-15T08:44:18;10.77;;;8.47;;
1925;SDS011;964;42.606;23.588;2024-02-15T08:46:46;13.33;;;8.27;;
1925;SDS011;964;42.606;23.588;2024-02-15T08:49:13;9.27;;;7.30;;
1925;SDS011;964;42.606;23.588;2024-02-15T08:51:40;8.97;;;6.67;;
1925;SDS011;964;42.606;23.588;2024-02-15T08:54:07;11.67;;;8.83;;
1925;SDS011;964;42.606;23.588;2024-02-15T08:56:34;13.73;;;7.63;;
1925;SDS011;964;42.606;23.588;2024-02-15T08:59:03;10.10;;;8.30;;
1925;SDS011;964;42.606;23.588;2024-02-15T09:01:30;8.80;;;6.70;;
1925;SDS011;964;42.606;23.588;2024-02-15T09:03:57;9.20;;;7.30;;
1925;SDS011;964;42.606;23.588;2024-02-15T09:06:23;9.47;;;7.10;;
1925;SDS011;964;42.606;23.588;2024-02-15T09:08:51;8.90;;;7.60;;
1925;SDS011;964;42.606;23.588;2024-02-15T09:11:18;11.97;;;8.47;;
1925;SDS011;964;42.606;23.588;2024-02-15T09:13:44;9.43;;;7.70;;
1925;SDS011;964;42.606;23.588;2024-02-15T09:16:13;10.23;;;7.37;;
1925;SDS011;964;42.606;23.588;2024-02-15T09:18:40;8.03;;;6.47;;
1925;SDS011;964;42.606;23.588;2024-02-15T09:21:10;10.13;;;8.40;;
1925;SDS011;964;42.606;23.588;2024-02-15T09:23:37;9.40;;;7.03;;
1925;SDS011;964;42.606;23.588;2024-02-15T09:26:04;9.13;;;7.53;;
1925;SDS011;964;42.606;23.588;2024-02-15T09:28:31;9.33;;;7.50;;
1925;SDS011;964;42.606;23.588;2024-02-15T09:30:58;9.50;;;7.93;;
1925;SDS011;964;42.606;23.588;2024-02-15T09:33:28;11.30;;;7.27;;
1925;SDS011;964;42.606;23.588;2024-02-15T09:35:55;8.73;;;7.83;;
1925;SDS011;964;42.606;23.588;2024-02-15T09:38:21;9.07;;;7.37;;
1925;SDS011;964;42.606;23.588;2024-02-15T09:40:50;9.77;;;7.33;;
1925;SDS011;964;42.606;23.588;2024-02-15T09:43:17;9.20;;;6.50;;
1925;SDS011;964;42.606;23.588;2024-02-15T09:45:44;12.13;;;7.40;;
1925;SDS011;964;42.606;23.588;2024-02-15T09:48:11;10.70;;;8.00;;
1925;SDS011;964;42.606;23.588;2024-02-15T09:50:41;8.50;;;7.13;;
1925;SDS011;964;42.606;23.588;2024-02-15T09:53:11;10.73;;;8.03;;
1925;SDS011;964;42.606;23.588;2024-02-15T09:55:40;9.90;;;7.93;;
1925;SDS011;964;42.606;23.588;2024-02-15T09:58:08;9.87;;;7.43;;
1925;SDS011;964;42.606;23.588;2024-02-15T10:00:37;10.70;;;7.50;;
1925;SDS011;964;42.606;23.588;2024-02-15T10:03:05;10.67;;;7.47;;
1925;SDS011;964;42.606;23.588;2024-02-15T10:05:32;8.70;;;6.80;;
1925;SDS011;964;42.606;23.588;2024-02-15T10:08:01;10.93;;;8.00;;
1925;SDS011;964;42.606;23.588;2024-02-15T10:10:29;11.93;;;7.90;;
1925;SDS011;964;42.606;23.588;2024-02-15T10:12:58;8.57;;;7.60;;
1925;SDS011;964;42.606;23.588;2024-02-15T10:15:33;10.13;;;7.53;;
1925;SDS011;964;42.606;23.588;2024-02-15T10:18:01;9.70;;;7.03;;
1925;SDS011;964;42.606;23.588;2024-02-15T10:20:30;11.00;;;8.13;;
1925;SDS011;964;42.606;23.588;2024-02-15T10:23:10;10.10;;;7.33;;
1925;SDS011;964;42.606;23.588;2024-02-15T10:25:39;10.20;;;7.30;;
1925;SDS011;964;42.606;23.588;2024-02-15T10:28:06;10.43;;;7.20;;
1925;SDS011;964;42.606;23.588;2024-02-15T10:30:34;9.80;;;8.10;;
1925;SDS011;964;42.606;23.588;2024-02-15T10:33:02;10.57;;;7.97;;
1925;SDS011;964;42.606;23.588;2024-02-15T10:35:29;9.80;;;8.00;;
1925;SDS011;964;42.606;23.588;2024-02-15T10:38:04;9.77;;;7.60;;
1925;SDS011;964;42.606;23.588;2024-02-15T10:40:34;9.27;;;7.20;;
1925;SDS011;964;42.606;23.588;2024-02-15T10:43:02;12.83;;;7.87;;
1925;SDS011;964;42.606;23.588;2024-02-15T10:45:30;7.37;;;6.40;;
1925;SDS011;964;42.606;23.588;2024-02-15T10:47:57;9.50;;;5.87;;
1925;SDS011;964;42.606;23.588;2024-02-15T10:50:24;9.73;;;7.37;;
1925;SDS011;964;42.606;23.588;2024-02-15T10:52:53;10.53;;;7.43;;
1925;SDS011;964;42.606;23.588;2024-02-15T10:55:22;11.50;;;8.00;;
1925;SDS011;964;42.606;23.588;2024-02-15T10:58:05;12.30;;;7.20;;
1925;SDS011;964;42.606;23.588;2024-02-15T11:00:33;8.00;;;6.63;;
1925;SDS011;964;42.606;23.588;2024-02-15T11:03:02;12.43;;;7.33;;
1925;SDS011;964;42.606;23.588;2024-02-15T11:05:31;10.87;;;7.50;;
1925;SDS011;964;42.606;23.588;2024-02-15T11:08:01;8.27;;;6.90;;
1925;SDS011;964;42.606;23.588;2024-02-15T11:10:31;10.80;;;7.43;;
1925;SDS011;964;42.606;23.588;2024-02-15T11:12:59;10.33;;;7.67;;
1925;SDS011;964;42.606;23.588;2024-02-15T11:15:41;10.73;;;7.60;;
1925;SDS011;964;42.606;23.588;2024-02-15T11:18:13;13.77;;;6.53;;
1925;SDS011;964;42.606;23.588;2024-02-15T11:21:10;10.90;;;7.07;;
1925;SDS011;964;42.606;23.588;2024-02-15T11:23:37;9.73;;;7.63;;
1925;SDS011;964;42.606;23.588;2024-02-15T11:26:08;9.77;;;7.63;;
1925;SDS011;964;42.606;23.588;2024-02-15T11:28:43;9.80;;;7.00;;
1925;SDS011;964;42.606;23.588;2024-02-15T11:40:18;9.80;;;6.50;;
1925;SDS011;964;42.606;23.588;2024-02-15T11:42:48;10.90;;;6.60;;
1925;SDS011;964;42.606;23.588;2024-02-15T11:45:15;9.27;;;7.30;;
1925;SDS011;964;42.606;23.588;2024-02-15T11:47:43;8.77;;;7.40;;
1925;SDS011;964;42.606;23.588;2024-02-15T11:50:17;8.97;;;6.83;;
1925;SDS011;964;42.606;23.588;2024-02-15T11:52:45;8.20;;;7.07;;
1925;SDS011;964;42.606;23.588;2024-02-15T11:55:14;9.20;;;6.50;;
1925;SDS011;964;42.606;23.588;2024-02-15T11:57:44;10.20;;;7.00;;
1925;SDS011;964;42.606;23.588;2024-02-15T12:00:27;10.93;;;7.00;;
1925;SDS011;964;42.606;23.588;2024-02-15T12:03:13;11.83;;;7.27;;
1925;SDS011;964;42.606;23.588;2024-02-15T12:05:59;10.80;;;8.03;;
1925;SDS011;964;42.606;23.588;2024-02-15T12:08:44;9.97;;;6.70;;
1925;SDS011;964;42.606;23.588;2024-02-15T12:11:29;8.23;;;5.63;;
1925;SDS011;964;42.606;23.588;2024-02-15T12:14:13;8.97;;;6.20;;
1925;SDS011;964;42.606;23.588;2024-02-15T12:16:59;10.23;;;6.40;;
1925;SDS011;964;42.606;23.588;2024-02-15T12:19:44;7.60;;;5.67;;
1925;SDS011;964;42.606;23.588;2024-02-15T12:22:13;6.97;;;6.03;;
1925;SDS011;964;42.606;23.588;2024-02-15T12:24:39;6.90;;;6.03;;
1925;SDS011;964;42.606;23.588;2024-02-15T12:27:06;10.13;;;5.80;;
1925;SDS011;964;42.606;23.588;2024-02-15T12:29:33;6.73;;;5.83;;
1925;SDS011;964;42.606;23.588;2024-02-15T12:32:00;5.47;;;4.97;;
1925;SDS011;964;42.606;23.588;2024-02-15T12:34:28;6.70;;;5.40;;
1925;SDS011;964;42.606;23.588;2024-02-15T12:37:04;8.90;;;5.23;;
1925;SDS011;964;42.606;23.588;2024-02-15T12:39:35;7.23;;;5.87;;
1925;SDS011;964;42.606;23.588;2024-02-15T12:42:03;6.10;;;5.37;;
1925;SDS011;964;42.606;23.588;2024-02-15T12:44:34;6.13;;;4.70;;
1925;SDS011;964;42.606;23.588;2024-02-15T12:47:01;6.27;;;4.57;;
1925;SDS011;964;42.606;23.588;2024-02-15T12:49:29;7.57;;;5.40;;
1925;SDS011;964;42.606;23.588;2024-02-15T12:55:09;6.90;;;4.97;;
1925;SDS011;964;42.606;23.588;2024-02-15T12:57:37;6.80;;;5.43;;
1925;SDS011;964;42.606;23.588;2024-02-15T13:00:06;5.97;;;4.27;;
1925;SDS011;964;42.606;23.588;2024-02-15T13:02:39;5.67;;;4.20;;
1925;SDS011;964;42.606;23.588;2024-02-15T13:05:07;6.93;;;4.90;;
1925;SDS011;964;42.606;23.588;2024-02-15T13:07:34;5.70;;;4.90;;
1925;SDS011;964;42.606;23.588;2024-02-15T13:10:01;5.90;;;4.60;;
1925;SDS011;964;42.606;23.588;2024-02-15T13:12:30;7.77;;;5.50;;
1925;SDS011;964;42.606;23.588;2024-02-15T13:14:59;8.00;;;5.40;;
1925;SDS011;964;42.606;23.588;2024-02-15T13:17:25;7.13;;;5.73;;
1925;SDS011;964;42.606;23.588;2024-02-15T13:19:52;6.57;;;5.20;;
1925;SDS011;964;42.606;23.588;2024-02-15T13:22:27;6.27;;;5.43;;
1925;SDS011;964;42.606;23.588;2024-02-15T13:24:54;9.70;;;6.10;;
1925;SDS011;964;42.606;23.588;2024-02-15T13:27:21;7.13;;;5.87;;
1925;SDS011;964;42.606;23.588;2024-02-15T13:29:50;7.73;;;5.30;;
1925;SDS011;964;42.606;23.588;2024-02-15T13:32:18;8.00;;;5.83;;
1925;SDS011;964;42.606;23.588;2024-02-15T13:34:46;6.70;;;5.90;;
1925;SDS011;964;42.606;23.588;2024-02-15T13:37:16;8.30;;;5.47;;
1925;SDS011;964;42.606;23.588;2024-02-15T13:39:45;6.60;;;5.00;;
1925;SDS011;964;42.606;23.588;2024-02-15T13:42:13;8.60;;;5.40;;
1925;SDS011;964;42.606;23.588;2024-02-15T13:44:39;10.03;;;6.30;;
1925;SDS011;964;42.606;23.588;2024-02-15T13:47:08;7.67;;;5.60;;
1925;SDS011;964;42.606;23.588;2024-02-15T13:49:34;8.80;;;5.47;;
1925;SDS011;964;42.606;23.588;2024-02-15T13:52:02;7.10;;;5.50;;
1925;SDS011;964;42.606;23.588;2024-02-15T13:54:29;7.23;;;5.40;;
1925;SDS011;964;42.606;23.588;2024-02-15T13:56:56;6.40;;;4.70;;
1925;SDS011;964;42.606;23.588;2024-02-15T13:59:23;10.50;;;5.43;;
1925;SDS011;964;42.606;23.588;2024-02-15T14:01:49;7.97;;;5.10;;
1925;SDS011;964;42.606;23.588;2024-02-15T14:04:20;6.40;;;5.53;;
1925;SDS011;964;42.606;23.588;2024-02-15T14:06:47;6.87;;;5.37;;
1925;SDS011;964;42.606;23.588;2024-02-15T14:09:13;6.40;;;4.90;;
1925;SDS011;964;42.606;23.588;2024-02-15T14:11:42;6.10;;;5.00;;
1925;SDS011;964;42.606;23.588;2024-02-15T14:14:09;6.20;;;5.60;;
1925;SDS011;964;42.606;23.588;2024-02-15T14:16:35;6.80;;;5.07;;
1925;SDS011;964;42.606;23.588;2024-02-15T14:19:02;6.63;;;5.13;;
1925;SDS011;964;42.606;23.588;2024-02-15T14:21:32;7.63;;;5.07;;
1925;SDS011;964;42.606;23.588;2024-02-15T14:24:05;10.40;;;5.63;;
1925;SDS011;964;42.606;23.588;2024-02-15T14:26:34;9.40;;;6.30;;
1925;SDS011;964;42.606;23.588;2024-02-15T14:29:01;8.43;;;5.90;;
1925;SDS011;964;42.606;23.588;2024-02-15T14:31:28;8.57;;;5.70;;
1925;SDS011;964;42.606;23.588;2024-02-15T14:34:12;6.33;;;5.53;;
1925;SDS011;964;42.606;23.588;2024-02-15T14:36:42;7.13;;;5.67;;
1925;SDS011;964;42.606;23.588;2024-02-15T14:39:09;8.07;;;5.87;;
1925;SDS011;964;42.606;23.588;2024-02-15T14:41:35;8.13;;;5.93;;
1925;SDS011;964;42.606;23.588;2024-02-15T14:44:03;6.60;;;5.30;;
1925;SDS011;964;42.606;23.588;2024-02-15T14:46:30;6.50;;;5.17;;
1925;SDS011;964;42.606;23.588;2024-02-15T14:49:00;7.17;;;5.63;;
1925;SDS011;964;42.606;23.588;2024-02-15T14:51:27;6.53;;;5.30;;
1925;SDS011;964;42.606;23.588;2024-02-15T14:53:55;6.97;;;5.10;;
1925;SDS011;964;42.606;23.588;2024-02-15T14:56:22;8.07;;;5.13;;
1925;SDS011;964;42.606;23.588;2024-02-15T14:58:49;7.50;;;5.17;;
1925;SDS011;964;42.606;23.588;2024-02-15T15:01:16;10.10;;;6.00;;
1925;SDS011;964;42.606;23.588;2024-02-15T15:03:45;9.80;;;6.10;;
1925;SDS011;964;42.606;23.588;2024-02-15T15:06:20;6.27;;;5.67;;
1925;SDS011;964;42.606;23.588;2024-02-15T15:09:05;8.30;;;5.23;;
1925;SDS011;964;42.606;23.588;2024-02-15T15:11:49;9.33;;;4.70;;
1925;SDS011;964;42.606;23.588;2024-02-15T15:14:33;7.53;;;4.70;;
1925;SDS011;964;42.606;23.588;2024-02-15T15:17:02;4.50;;;3.67;;
1925;SDS011;964;42.606;23.588;2024-02-15T15:19:30;3.87;;;3.47;;
1925;SDS011;964;42.606;23.588;2024-02-15T15:21:56;4.37;;;3.77;;
1925;SDS011;964;42.606;23.588;2024-02-15T15:24:25;5.00;;;3.43;;
1925;SDS011;964;42.606;23.588;2024-02-15T15:26:51;4.90;;;3.50;;
1925;SDS011;964;42.606;23.588;2024-02-15T15:29:18;4.50;;;3.13;;
1925;SDS011;964;42.606;23.588;2024-02-15T15:31:45;4.63;;;3.43;;